עמוד ראשי
METAR-TAF:

METAR-TAF

שדות תעופה :

תלמסאן, אלג'יריה

קו רוחב: 35-01N, קו אורך: 001-28W, גובה: 247מטר

תצפית מזג אוויר נוכחית

הדו"ח נערך לפני 49דקות, בשעה 11:30 UTC
רוח 7קשר מכיוון צפון/צפון-מערב
טמפרטורת 29 צלסיוס
לחות 48%
לחץ 1011 hPa
ראות 10 קילומטר או יותר
ללא עננים שבסיסם נמוך מ 5000 רגל או קומולונימבוס

METAR: DAON 251130Z 33007KT CAVOK 29/17 Q1011

זמן: 13:19 (12:19 UTC)

תחזית

הדו"ח נערך לפני 1 שעות ו 19דקות, בשעה 11:00 UTC
תחזית בתוקף מ 25 ב 12 UTC עד 26 ב 12 UTC
רוח 12קשר מכיוון צפון
ראות 10 קילומטר או יותר
ללא עננים שבסיסם נמוך מ 5000 רגל או קומולונימבוס
יעשה מ
25 ב 20 UTC עד 25 ב 22 UTC
רוח 2קשר עם כיוונים משתנים
יעשה מ
26 ב 02 UTC עד 26 ב 05 UTC
עננים בינוניים בגובה 1000רגל
יעשה מ
26 ב 10 UTC עד 26 ב 12 UTC
רוח 11קשר מכיוון צפון/צפון-מערב
עננים פזורים בגובה 2600רגל

TAF: DAON 251100Z 2512/2612 36012KT CAVOK BECMG 2520/2522 VRB02KT BECMG 2602/2605 BKN010 BECMG 2610/2612 34011KT SCT026

תצפיות ותחזיות מזג אוויר לגבי יותר מ- 4,000 שדות תעופה ברחבי העולם. דוחות METAR ו- TAF.

התחנות הזמינות מסומנות בנקודות צהובות ואדומות על גבי המפה.

העבר את העכבר לנקודה הצבעונית על מנת לראות את שם התחנה.

לאחר מכן, לחץ כדי לראות את תוכן ואת תחזיות מזג האוויר.

כדי לשנות את המפה: לחץ על הכפתורים הירוקים עם הפלוס השחור כדי להתקרב; על הכפתור הירוק עם המקף כדי להתרחק; או בחיצים הירוקים למפות סמוכות.


METAR-TAF: